createdAt,value
2019-04-14T00:01:30.484Z,24.13
2019-04-14T00:04:05.239Z,21.13
2019-04-14T00:06:33.057Z,20.17
2019-04-14T00:08:59.595Z,21.07
2019-04-14T00:11:26.232Z,25.97
2019-04-14T00:13:52.857Z,20.63
2019-04-14T00:16:20.653Z,23.47
2019-04-14T00:18:51.238Z,20.53
2019-04-14T00:21:19.159Z,20.80
2019-04-14T00:23:45.895Z,21.27
2019-04-14T00:26:27.111Z,22.73
2019-04-14T00:28:54.114Z,21.17
2019-04-14T00:31:21.654Z,20.47
2019-04-14T00:33:48.252Z,21.73
2019-04-14T00:36:26.324Z,22.23
2019-04-14T00:38:54.281Z,19.53
2019-04-14T00:41:42.450Z,21.50
2019-04-14T00:44:27.694Z,19.80
2019-04-14T00:47:00.601Z,19.67
2019-04-14T00:49:27.317Z,21.70
2019-04-14T00:51:54.912Z,21.70
2019-04-14T00:54:21.791Z,21.17
2019-04-14T00:56:49.636Z,22.73
2019-04-14T00:59:16.493Z,26.70
2019-04-14T01:01:43.782Z,26.17
2019-04-14T01:04:10.456Z,24.80
2019-04-14T01:06:38.197Z,23.90
2019-04-14T01:09:08.564Z,20.77
2019-04-14T01:11:35.728Z,20.57
2019-04-14T01:14:03.652Z,24.17
2019-04-14T01:16:30.399Z,23.40
2019-04-14T01:18:58.066Z,20.80
2019-04-14T01:21:28.520Z,29.23
2019-04-14T01:23:55.218Z,21.77
2019-04-14T01:26:22.546Z,21.37
2019-04-14T01:28:50.333Z,21.33
2019-04-14T01:31:18.369Z,20.47
2019-04-14T01:33:45.108Z,20.53
2019-04-14T01:36:12.753Z,27.03
2019-04-14T01:38:40.599Z,23.10
2019-04-14T01:41:08.454Z,20.37
2019-04-14T01:43:36.390Z,19.87
2019-04-14T01:46:11.678Z,23.80
2019-04-14T01:48:32.435Z,21.13
2019-04-14T01:51:22.385Z,27.13
2019-04-14T01:54:19.198Z,23.27
2019-04-14T01:57:11.034Z,19.73
2019-04-14T01:59:38.893Z,27.30
2019-04-14T02:02:09.704Z,23.53
2019-04-14T02:04:36.321Z,24.47
2019-04-14T02:07:03.823Z,28.50
2019-04-14T02:09:31.643Z,23.27
2019-04-14T02:11:59.489Z,20.97
2019-04-14T02:14:40.934Z,23.47
2019-04-14T02:17:11.296Z,21.60
2019-04-14T03:01:27.692Z,26.23
2019-04-14T03:08:59.079Z,24.53
2019-04-14T03:11:21.188Z,33.73
2019-04-14T03:13:45.520Z,24.33
2019-04-14T03:16:17.848Z,24.43
2019-04-14T03:19:11.044Z,22.97
2019-04-14T03:21:40.789Z,23.10
2019-04-14T03:24:17.030Z,22.07
2019-04-14T03:26:54.120Z,18.10
2019-04-14T03:32:13.858Z,26.53
2019-04-14T03:34:37.121Z,28.33
2019-04-14T03:37:31.800Z,28.60
2019-04-14T03:39:27.362Z,24.77
2019-04-14T03:41:45.575Z,28.67
2019-04-14T03:44:19.148Z,23.57
2019-04-14T03:49:14.130Z,23.27
2019-04-14T03:51:46.879Z,26.23
2019-04-14T03:54:03.102Z,24.33
2019-04-14T03:56:46.658Z,22.70
2019-04-14T03:59:15.113Z,22.00
2019-04-14T04:01:41.845Z,24.53
2019-04-14T04:04:09.716Z,22.37
2019-04-14T04:06:36.372Z,23.13
2019-04-14T04:09:06.135Z,23.07
2019-04-14T04:11:34.370Z,24.33
2019-04-14T04:14:01.302Z,21.83
2019-04-14T04:16:48.381Z,19.83
2019-04-14T04:19:35.828Z,22.70
2019-04-14T04:22:34.729Z,21.50
2019-04-14T04:25:22.585Z,22.93
2019-04-14T04:28:10.174Z,24.37
2019-04-14T04:30:44.668Z,22.87
2019-04-14T04:33:22.481Z,23.77
2019-04-14T04:35:52.776Z,25.87
2019-04-14T04:38:44.038Z,23.63
2019-04-14T04:41:10.908Z,24.10
2019-04-14T04:43:38.699Z,21.07
2019-04-14T04:46:05.412Z,22.40
2019-04-14T04:48:32.890Z,26.43
2019-04-14T04:51:00.620Z,26.37
2019-04-14T04:53:27.407Z,29.17
2019-04-14T04:55:54.661Z,23.33
2019-04-14T04:58:21.676Z,24.83
2019-04-14T05:00:50.971Z,26.90
2019-04-14T05:03:16.948Z,26.37
2019-04-14T05:06:11.374Z,24.47
2019-04-14T05:08:41.485Z,21.60
2019-04-14T05:11:27.686Z,25.77
2019-04-14T05:13:57.590Z,25.33
2019-04-14T05:16:24.303Z,28.17
2019-04-14T05:18:50.998Z,19.30
2019-04-14T05:21:17.672Z,24.30
2019-04-14T05:23:45.322Z,22.20
2019-04-14T05:26:13.368Z,27.67
2019-04-14T05:28:40.074Z,23.10
2019-04-14T05:31:07.630Z,25.90
2019-04-14T05:33:34.403Z,20.80
2019-04-14T05:36:02.072Z,22.67
2019-04-14T05:38:30.631Z,25.80
2019-04-14T05:40:58.381Z,24.87
2019-04-14T05:43:38.727Z,25.23
2019-04-14T05:46:01.372Z,24.47
2019-04-14T05:48:29.396Z,22.83
2019-04-14T05:50:57.649Z,21.67
2019-04-14T05:53:24.455Z,25.43
2019-04-14T05:55:51.098Z,26.57
2019-04-14T05:58:18.587Z,23.90
2019-04-14T06:00:46.396Z,25.67
2019-04-14T06:03:13.126Z,30.43
2019-04-14T06:05:40.371Z,21.30
2019-04-14T06:08:08.233Z,25.03
2019-04-14T06:10:34.875Z,23.93
2019-04-14T06:13:01.541Z,28.87
2019-04-14T06:15:29.300Z,26.07
2019-04-14T06:17:55.969Z,28.23
2019-04-14T06:20:22.790Z,25.17
2019-04-14T06:22:49.524Z,21.27
2019-04-14T06:25:16.337Z,27.93
2019-04-14T06:27:43.117Z,26.70
2019-04-14T06:30:28.209Z,23.87
2019-04-14T06:32:55.945Z,23.93
2019-04-14T06:35:41.385Z,22.03
2019-04-14T06:38:11.435Z,25.77
2019-04-14T06:40:59.393Z,26.67
2019-04-14T06:43:25.958Z,27.30
2019-04-14T06:45:52.733Z,30.70
2019-04-14T06:48:19.314Z,26.70
2019-04-14T06:50:46.572Z,27.77
2019-04-14T06:53:13.492Z,25.77
2019-04-14T06:55:40.276Z,28.07
2019-04-14T06:58:07.170Z,25.37
2019-04-14T07:00:33.824Z,31.60
2019-04-14T07:03:00.580Z,29.63
2019-04-14T07:05:27.233Z,28.07
2019-04-14T07:07:57.293Z,30.83
2019-04-14T07:10:22.642Z,26.73
2019-04-14T07:12:49.309Z,25.13
2019-04-14T07:15:16.242Z,28.20
2019-04-14T07:17:42.987Z,32.37
2019-04-14T07:20:11.210Z,31.43
2019-04-14T07:22:38.101Z,27.60
2019-04-14T07:25:04.960Z,31.70
2019-04-14T07:27:31.713Z,29.60
2019-04-14T07:30:23.261Z,30.73
2019-04-14T07:33:15.589Z,25.93
2019-04-14T07:35:49.898Z,28.77
2019-04-14T07:38:23.911Z,26.30
2019-04-14T07:41:19.421Z,32.23
2019-04-14T07:44:04.454Z,31.90
2019-04-14T07:46:43.832Z,24.07
2019-04-14T07:49:42.364Z,26.50
2019-04-14T07:52:27.573Z,25.53
2019-04-14T07:55:13.792Z,24.53
2019-04-14T07:57:58.900Z,25.37
2019-04-14T08:00:31.685Z,24.27
2019-04-14T08:03:03.147Z,23.40
2019-04-14T08:05:33.080Z,28.43
2019-04-14T08:07:59.879Z,27.93
2019-04-14T08:10:26.419Z,23.50
2019-04-14T08:12:53.227Z,26.10
2019-04-14T08:15:19.909Z,23.57
2019-04-14T08:17:46.687Z,25.73
2019-04-14T08:20:26.412Z,23.10
2019-04-14T08:22:42.600Z,22.17
2019-04-14T08:25:09.172Z,23.07
2019-04-14T08:27:35.849Z,23.40
2019-04-14T08:30:03.471Z,23.87
2019-04-14T08:32:30.187Z,22.20
2019-04-14T08:34:56.845Z,25.30
2019-04-14T08:37:23.474Z,22.63
2019-04-14T08:39:50.113Z,23.10
2019-04-14T08:42:48.401Z,21.13
2019-04-14T08:45:23.973Z,23.13
2019-04-14T08:48:08.876Z,22.90
2019-04-14T08:50:44.322Z,19.30
2019-04-14T08:53:30.703Z,20.97
2019-04-14T08:56:09.997Z,22.10
2019-04-14T08:58:58.301Z,23.60
2019-04-14T09:01:36.287Z,19.03
2019-04-14T09:04:11.703Z,20.90
2019-04-14T09:06:48.711Z,19.17
2019-04-14T09:09:33.958Z,22.97
2019-04-14T09:12:15.345Z,22.73
2019-04-14T09:14:35.677Z,23.17
2019-04-14T09:17:02.414Z,20.20
2019-04-14T09:19:29.118Z,18.77
2019-04-14T09:21:55.818Z,20.63
2019-04-14T09:24:22.458Z,22.90
2019-04-14T09:26:49.226Z,20.60
2019-04-14T09:29:15.903Z,19.33
2019-04-14T09:31:42.561Z,19.13
2019-04-14T09:34:09.115Z,22.80
2019-04-14T09:36:35.821Z,22.27
2019-04-14T09:39:04.051Z,20.40
2019-04-14T09:41:30.596Z,19.73
2019-04-14T09:43:57.244Z,19.20
2019-04-14T09:46:23.962Z,18.67
2019-04-14T09:48:50.826Z,21.87
2019-04-14T09:51:17.687Z,21.33
2019-04-14T09:53:44.454Z,20.13
2019-04-14T09:56:11.142Z,19.73
2019-04-14T09:58:37.976Z,19.97
2019-04-14T10:01:04.680Z,23.33
2019-04-14T10:03:31.344Z,21.73
2019-04-14T10:05:59.141Z,22.57
2019-04-14T10:08:25.965Z,22.57
2019-04-14T10:10:52.955Z,23.33
2019-04-14T10:13:19.658Z,18.63
2019-04-14T10:15:47.538Z,21.30
2019-04-14T10:18:14.296Z,20.23
2019-04-14T10:20:40.991Z,18.83
2019-04-14T10:23:07.784Z,15.63
2019-04-14T10:25:34.508Z,16.27
2019-04-14T10:28:01.366Z,16.30
2019-04-14T10:30:28.152Z,17.70
2019-04-14T10:32:54.847Z,15.87
2019-04-14T10:35:21.656Z,21.77
2019-04-14T10:37:48.315Z,16.27
2019-04-14T10:40:15.074Z,18.17
2019-04-14T10:42:41.814Z,16.00
2019-04-14T10:45:08.762Z,16.33
2019-04-14T10:47:35.566Z,14.93
2019-04-14T10:50:02.732Z,18.97
2019-04-14T10:52:29.682Z,18.23
2019-04-14T10:54:56.340Z,16.90
2019-04-14T10:57:23.237Z,15.37
2019-04-14T10:59:49.974Z,17.37
2019-04-14T11:02:16.925Z,12.77
2019-04-14T11:04:43.817Z,13.93
2019-04-14T11:07:17.908Z,14.97
2019-04-14T11:09:44.733Z,18.37
2019-04-14T11:12:13.351Z,14.67
2019-04-14T11:14:40.202Z,17.13
2019-04-14T11:17:07.127Z,15.50
2019-04-14T11:19:34.672Z,15.67
2019-04-14T11:22:01.282Z,16.20
2019-04-14T11:24:28.033Z,15.63
2019-04-14T11:26:54.918Z,19.17
2019-04-14T11:29:21.589Z,15.00
2019-04-14T11:32:19.959Z,15.40
2019-04-14T11:34:54.449Z,20.27
2019-04-14T11:37:34.970Z,16.60
2019-04-14T11:40:02.858Z,13.83
2019-04-14T11:42:29.548Z,17.53
2019-04-14T11:44:56.465Z,18.73
2019-04-14T11:47:23.096Z,18.87
2019-04-14T11:49:49.966Z,17.10
2019-04-14T11:52:16.667Z,16.40
2019-04-14T11:54:43.446Z,16.17
2019-04-14T11:57:10.322Z,17.97
2019-04-14T12:00:04.963Z,18.53
2019-04-14T12:02:50.242Z,15.90
2019-04-14T12:05:25.291Z,18.43
2019-04-14T12:08:11.947Z,18.07
2019-04-14T12:10:38.813Z,16.03
2019-04-14T12:13:05.515Z,16.73
2019-04-14T12:15:34.476Z,16.40
2019-04-14T12:18:01.180Z,18.63
2019-04-14T12:20:28.099Z,15.47
2019-04-14T12:22:54.847Z,15.30
2019-04-14T12:25:21.859Z,15.03
2019-04-14T12:27:48.940Z,15.63
2019-04-14T12:30:15.876Z,17.33
2019-04-14T12:32:42.617Z,16.33
2019-04-14T12:35:09.451Z,15.23
2019-04-14T12:37:36.176Z,17.73
2019-04-14T12:40:04.821Z,16.63
2019-04-14T12:42:38.088Z,16.60
2019-04-14T12:45:24.273Z,17.80
2019-04-14T12:48:17.248Z,18.77
2019-04-14T12:50:48.915Z,18.17
2019-04-14T12:53:15.890Z,15.93
2019-04-14T12:55:42.988Z,16.70
2019-04-14T12:58:11.433Z,17.37
2019-04-14T13:00:47.345Z,16.30
2019-04-14T13:03:14.218Z,14.60
2019-04-14T13:05:41.138Z,16.90
2019-04-14T13:08:08.350Z,20.53
2019-04-14T13:10:36.734Z,17.10
2019-04-14T13:13:03.934Z,15.70
2019-04-14T13:15:30.732Z,15.97
2019-04-14T13:17:57.381Z,17.67
2019-04-14T13:20:24.302Z,18.10
2019-04-14T13:22:51.396Z,16.33
2019-04-14T13:25:18.184Z,14.80
2019-04-14T13:27:45.132Z,18.20
2019-04-14T13:30:14.646Z,15.97
2019-04-14T13:32:41.555Z,20.03
2019-04-14T13:35:08.631Z,15.87
2019-04-14T13:37:35.629Z,18.00
2019-04-14T13:40:02.550Z,18.03
2019-04-14T13:42:29.337Z,17.60
2019-04-14T13:44:55.877Z,15.27
2019-04-14T13:47:22.668Z,15.60
2019-04-14T13:49:49.450Z,16.27
2019-04-14T13:52:16.183Z,15.67
2019-04-14T13:54:43.007Z,15.37
2019-04-14T13:57:09.728Z,15.77
2019-04-14T13:59:36.648Z,19.93
2019-04-14T14:02:03.451Z,15.07
2019-04-14T14:04:30.141Z,15.40
2019-04-14T14:06:56.939Z,16.87
2019-04-14T14:09:23.682Z,15.00
2019-04-14T14:12:19.131Z,14.00
2019-04-14T14:15:11.288Z,16.80
2019-04-14T14:17:50.561Z,17.73
2019-04-14T14:20:23.685Z,14.20
2019-04-14T14:23:00.660Z,16.50
2019-04-14T14:25:34.780Z,16.33
2019-04-14T14:28:01.540Z,16.13
2019-04-14T14:30:28.311Z,16.63
2019-04-14T14:32:55.173Z,17.17
2019-04-14T14:35:21.985Z,18.13
2019-04-14T14:37:48.762Z,16.93
2019-04-14T14:40:15.771Z,17.93
2019-04-14T14:42:42.564Z,16.83
2019-04-14T14:45:30.445Z,20.60
2019-04-14T14:48:25.745Z,16.50
2019-04-14T14:50:56.806Z,18.20
2019-04-14T14:53:23.669Z,16.90
2019-04-14T14:55:50.557Z,18.80
2019-04-14T14:58:17.567Z,15.50
2019-04-14T15:00:44.344Z,15.63
2019-04-14T15:03:11.304Z,16.70
2019-04-14T15:05:38.072Z,17.97
2019-04-14T15:08:04.795Z,17.40
2019-04-14T15:10:32.513Z,17.00
2019-04-14T15:12:59.186Z,12.30
2019-04-14T15:15:26.051Z,16.40
2019-04-14T15:17:52.834Z,18.50
2019-04-14T15:20:19.655Z,18.90
2019-04-14T15:22:47.470Z,14.63
2019-04-14T15:25:14.132Z,18.17
2019-04-14T15:27:40.939Z,15.33
2019-04-14T15:30:13.000Z,16.50
2019-04-14T15:32:39.790Z,16.33
2019-04-14T15:35:06.483Z,17.27
2019-04-14T15:37:33.185Z,17.47
2019-04-14T15:39:59.954Z,14.37
2019-04-14T15:42:26.799Z,17.77
2019-04-14T15:44:53.583Z,19.17
2019-04-14T15:47:20.230Z,14.90
2019-04-14T15:49:46.900Z,14.10
2019-04-14T15:52:13.660Z,12.43
2019-04-14T15:54:40.345Z,16.77
2019-04-14T15:57:19.597Z,18.13
2019-04-14T16:00:04.840Z,16.33
2019-04-14T16:02:39.221Z,15.40
2019-04-14T16:05:21.800Z,14.27
2019-04-14T16:08:18.344Z,18.70
2019-04-14T16:10:54.286Z,19.77
2019-04-14T16:13:25.093Z,15.60
2019-04-14T16:15:57.056Z,18.37
2019-04-14T16:18:41.750Z,14.83
2019-04-14T16:21:08.496Z,14.37
2019-04-14T16:23:35.056Z,17.67
2019-04-14T16:26:07.409Z,12.80
2019-04-14T16:28:39.167Z,20.23
2019-04-14T16:31:40.489Z,17.80
2019-04-14T16:34:26.828Z,19.13
2019-04-14T16:36:53.768Z,18.00
2019-04-14T16:39:20.536Z,15.37
2019-04-14T16:41:47.228Z,16.83
2019-04-14T16:44:13.880Z,17.13
2019-04-14T16:46:40.520Z,17.53
2019-04-14T16:49:07.335Z,17.70
2019-04-14T16:51:40.248Z,18.17
2019-04-14T16:54:17.618Z,17.67
2019-04-14T16:57:02.408Z,17.47
2019-04-14T16:59:29.049Z,17.40
2019-04-14T17:01:55.934Z,15.13
2019-04-14T17:04:22.648Z,15.93
2019-04-14T17:06:49.370Z,22.03
2019-04-14T17:09:16.062Z,16.37
2019-04-14T17:11:42.919Z,20.63
2019-04-14T17:14:32.779Z,16.83
2019-04-14T17:17:21.172Z,17.13
2019-04-14T17:20:06.057Z,18.97
2019-04-14T17:22:52.503Z,19.43
2019-04-14T17:25:32.814Z,19.77
2019-04-14T17:28:07.233Z,16.67
2019-04-14T17:30:53.640Z,18.37
2019-04-14T17:33:42.659Z,16.77
2019-04-14T17:36:21.465Z,19.33
2019-04-14T17:39:07.806Z,20.33
2019-04-14T17:41:39.965Z,17.10
2019-04-14T17:44:13.575Z,19.27
2019-04-14T17:46:58.667Z,14.73
2019-04-14T17:49:36.268Z,19.67
2019-04-14T17:52:22.657Z,16.50
2019-04-14T17:55:24.192Z,19.17
2019-04-14T17:57:56.122Z,16.33
2019-04-14T18:00:45.334Z,15.53
2019-04-14T18:03:40.940Z,18.63
2019-04-14T18:06:36.211Z,19.00
2019-04-14T18:09:23.260Z,16.60
2019-04-14T18:12:01.305Z,15.90
2019-04-14T18:14:47.683Z,20.50
2019-04-14T18:17:23.221Z,17.17
2019-04-14T18:19:54.183Z,17.53
2019-04-14T18:22:20.861Z,18.63
2019-04-14T18:24:47.456Z,19.80
2019-04-14T18:27:14.251Z,17.83
2019-04-14T18:29:51.261Z,19.73
2019-04-14T18:32:25.112Z,17.57
2019-04-14T18:35:03.792Z,18.37
2019-04-14T18:37:34.496Z,18.70
2019-04-14T18:40:07.145Z,19.93
2019-04-14T18:42:44.641Z,22.33
2019-04-14T18:45:16.828Z,24.00
2019-04-14T18:47:53.582Z,19.93
2019-04-14T18:50:33.645Z,20.23
2019-04-14T18:53:06.831Z,20.43
2019-04-14T18:56:08.096Z,22.20
2019-04-14T18:58:46.880Z,21.70
2019-04-14T19:01:16.183Z,21.97
2019-04-14T19:03:42.883Z,19.33
2019-04-14T19:06:09.616Z,24.83
2019-04-14T19:08:37.278Z,20.70
2019-04-14T19:11:22.219Z,27.03
2019-04-14T19:13:50.270Z,22.30
2019-04-14T19:16:21.946Z,21.30
2019-04-14T19:18:51.382Z,23.10
2019-04-14T19:21:20.999Z,22.43
2019-04-14T19:23:47.797Z,18.43
2019-04-14T19:26:15.599Z,23.53
2019-04-14T19:28:42.390Z,24.20
2019-04-14T19:31:09.118Z,19.67
2019-04-14T19:33:36.028Z,23.07
2019-04-14T19:36:02.800Z,27.00
2019-04-14T19:38:29.543Z,26.20
2019-04-14T19:40:56.396Z,24.50
2019-04-14T19:43:24.336Z,24.93
2019-04-14T19:45:51.129Z,23.57
2019-04-14T19:48:17.810Z,28.30
2019-04-14T19:50:44.511Z,23.83
2019-04-14T19:53:11.625Z,23.40
2019-04-14T19:55:38.315Z,29.33
2019-04-14T19:58:05.164Z,18.40
2019-04-14T20:00:32.013Z,25.80
2019-04-14T20:02:58.782Z,28.33
2019-04-14T20:05:25.528Z,27.67
2019-04-14T20:07:52.279Z,23.47
2019-04-14T20:10:19.544Z,26.33
2019-04-14T20:12:46.356Z,21.03
2019-04-14T20:15:16.681Z,30.67
2019-04-14T20:17:58.955Z,28.50
2019-04-14T20:20:54.215Z,26.57
2019-04-14T20:23:51.814Z,24.67
2019-04-14T20:26:25.393Z,28.83
2019-04-14T20:28:56.040Z,24.83
2019-04-14T20:31:33.736Z,26.10
2019-04-14T20:34:00.534Z,25.80
2019-04-14T20:36:27.658Z,28.87
2019-04-14T20:38:54.331Z,33.20
2019-04-14T20:41:21.145Z,24.20
2019-04-14T20:43:47.942Z,26.13
2019-04-14T20:46:14.787Z,28.53
2019-04-14T20:48:41.512Z,31.33
2019-04-14T20:51:08.637Z,28.40
2019-04-14T20:53:35.399Z,32.83
2019-04-14T20:56:02.171Z,29.43
2019-04-14T20:58:28.895Z,29.17
2019-04-14T21:00:55.645Z,31.93
2019-04-14T21:03:34.114Z,24.70
2019-04-14T21:06:20.960Z,35.37
2019-04-14T21:09:10.016Z,29.03
2019-04-14T21:11:45.769Z,26.67
2019-04-14T21:14:19.350Z,27.97
2019-04-14T21:16:52.443Z,30.97
2019-04-14T21:19:27.472Z,31.83
2019-04-14T21:22:00.531Z,32.43
2019-04-14T21:24:49.365Z,30.50
2019-04-14T21:27:25.176Z,24.60
2019-04-14T21:30:20.776Z,32.23
2019-04-14T21:32:53.350Z,26.57
2019-04-14T21:35:30.110Z,31.00
2019-04-14T21:38:04.956Z,36.73
2019-04-14T21:40:51.354Z,29.73
2019-04-14T21:43:18.131Z,29.57
2019-04-14T21:45:44.881Z,30.80
2019-04-14T21:48:12.675Z,33.03
2019-04-14T21:50:39.438Z,31.30
2019-04-14T21:53:06.103Z,33.23
2019-04-14T21:55:32.894Z,33.50
2019-04-14T21:58:10.980Z,32.17
2019-04-14T22:01:23.369Z,33.03
2019-04-14T22:03:58.275Z,28.10
2019-04-14T22:06:30.985Z,31.50
2019-04-14T22:08:57.779Z,27.87
2019-04-14T22:11:25.689Z,30.33
2019-04-14T22:13:52.395Z,31.07
2019-04-14T22:16:19.224Z,32.13
2019-04-14T22:18:45.884Z,30.97
2019-04-14T22:21:12.749Z,32.50
2019-04-14T22:23:39.396Z,30.37
2019-04-14T22:26:06.553Z,34.70
2019-04-14T22:28:33.280Z,32.27
2019-04-14T22:31:00.255Z,30.33
2019-04-14T22:33:29.902Z,31.40
2019-04-14T22:35:56.571Z,34.70
2019-04-14T22:38:23.235Z,32.40
2019-04-14T22:40:49.875Z,31.73
2019-04-14T22:43:16.543Z,31.40
2019-04-14T22:45:43.203Z,29.30
2019-04-14T22:48:10.035Z,27.70
2019-04-14T22:50:36.765Z,30.07
2019-04-14T22:53:03.574Z,30.83
2019-04-14T22:55:30.221Z,32.47
2019-04-14T22:57:56.962Z,35.13
2019-04-14T23:00:42.144Z,33.57
2019-04-14T23:03:22.944Z,29.13
2019-04-14T23:06:09.240Z,34.70
2019-04-14T23:09:07.765Z,31.13
2019-04-14T23:11:52.943Z,31.77
2019-04-14T23:14:34.876Z,26.00
2019-04-14T23:17:19.503Z,33.20
2019-04-14T23:20:23.024Z,32.17
2019-04-14T23:23:05.334Z,30.13
2019-04-14T23:25:32.095Z,32.50
2019-04-14T23:27:58.763Z,29.73
2019-04-14T23:30:25.431Z,31.47
2019-04-14T23:32:52.074Z,30.50
2019-04-14T23:35:18.794Z,33.23
2019-04-14T23:37:45.452Z,31.73
2019-04-14T23:40:12.293Z,28.33
2019-04-14T23:42:38.973Z,26.77
2019-04-14T23:45:05.785Z,37.03
2019-04-14T23:47:32.530Z,30.83
2019-04-14T23:49:59.182Z,29.57
2019-04-14T23:52:25.911Z,34.63
2019-04-14T23:54:52.573Z,26.97
2019-04-14T23:57:19.220Z,30.33
2019-04-14T23:59:45.774Z,32.00
